Time,TemperatureF,DewpointF,PressureIn,WindDirection,WindDirectionDegrees,WindSpeedMPH,WindSpeedGustMPH,Humidity,HourlyPrecipIn,Conditions,Clouds,dailyrainin,SoftwareType,DateUTC
2013-03-09 00:12:00,25.0,22.0,29.69,SSW,197,0.0,0.0,87,0.00,,,0.00,weatherlink.com 1.10,2013-03-09 05:12:00,
2013-03-09 00:27:00,24.8,22.0,29.68,SSW,197,0.0,0.0,88,0.00,,,0.00,weatherlink.com 1.10,2013-03-09 05:27:00,
2013-03-09 00:42:00,24.5,22.0,29.68,SSW,197,0.0,0.0,88,0.00,,,0.00,weatherlink.com 1.10,2013-03-09 05:42:00,
2013-03-09 00:57:00,24.2,22.0,29.68,SSW,197,0.0,0.0,89,0.00,,,0.00,weatherlink.com 1.10,2013-03-09 05:57:00,
2013-03-09 01:12:00,24.5,22.0,29.68,SSW,197,0.0,0.0,89,0.00,,,0.00,weatherlink.com 1.10,2013-03-09 06:12:00,
2013-03-09 01:27:00,24.2,22.0,29.68,SSW,197,0.0,0.0,89,0.00,,,0.00,weatherlink.com 1.10,2013-03-09 06:27:00,
2013-03-09 01:42:00,24.0,22.0,29.68,SSW,197,0.0,0.0,90,0.00,,,0.00,weatherlink.com 1.10,2013-03-09 06:42:00,
2013-03-09 01:57:00,24.0,22.0,29.68,SSW,197,0.0,0.0,90,0.00,,,0.00,weatherlink.com 1.10,2013-03-09 06:57:00,
2013-03-09 02:12:00,23.8,21.0,29.67,SSW,197,0.0,0.0,90,0.00,,,0.00,weatherlink.com 1.10,2013-03-09 07:12:00,
2013-03-09 02:27:00,23.9,21.0,29.66,SSW,197,0.0,0.0,90,0.00,,,0.00,weatherlink.com 1.10,2013-03-09 07:27:00,
2013-03-09 02:42:00,23.7,22.0,29.66,SSW,197,0.0,0.0,91,0.00,,,0.00,weatherlink.com 1.10,2013-03-09 07:42:00,
2013-03-09 02:57:00,23.6,21.0,29.65,SSW,197,0.0,0.0,91,0.00,,,0.00,weatherlink.com 1.10,2013-03-09 07:57:00,
2013-03-09 03:12:00,23.6,22.0,29.64,South,186,0.0,1.0,92,0.00,,,0.00,weatherlink.com 1.10,2013-03-09 08:12:00,
2013-03-09 03:27:00,23.8,22.0,29.64,South,186,0.0,0.0,92,0.00,,,0.00,weatherlink.com 1.10,2013-03-09 08:27:00,
2013-03-09 03:43:00,24.1,22.0,29.64,South,186,0.0,0.0,92,0.00,,,0.00,weatherlink.com 1.10,2013-03-09 08:43:00,
2013-03-09 03:58:00,24.1,22.0,29.63,South,186,0.0,0.0,92,0.00,,,0.00,weatherlink.com 1.10,2013-03-09 08:58:00,
2013-03-09 04:13:00,23.9,22.0,29.63,South,186,0.0,0.0,92,0.00,,,0.00,weatherlink.com 1.10,2013-03-09 09:13:00,
2013-03-09 04:28:00,23.8,22.0,29.62,South,186,0.0,0.0,92,0.00,,,0.00,weatherlink.com 1.10,2013-03-09 09:28:00,
2013-03-09 04:43:00,23.6,22.0,29.63,South,186,0.0,0.0,93,0.00,,,0.00,weatherlink.com 1.10,2013-03-09 09:43:00,
2013-03-09 04:58:00,23.6,22.0,29.63,South,186,0.0,0.0,93,0.00,,,0.00,weatherlink.com 1.10,2013-03-09 09:58:00,
2013-03-09 05:13:00,22.9,21.0,29.64,South,186,0.0,1.0,92,0.00,,,0.00,weatherlink.com 1.10,2013-03-09 10:13:00,
2013-03-09 05:28:00,22.8,21.0,29.64,South,185,0.0,1.0,93,0.00,,,0.00,weatherlink.com 1.10,2013-03-09 10:28:00,
2013-03-09 05:43:00,22.6,21.0,29.65,South,185,0.0,0.0,93,0.00,,,0.00,weatherlink.com 1.10,2013-03-09 10:43:00,
2013-03-09 05:58:00,22.7,21.0,29.65,South,185,0.0,0.0,94,0.00,,,0.00,weatherlink.com 1.10,2013-03-09 10:58:00,
2013-03-09 06:13:00,22.4,21.0,29.64,South,185,0.0,0.0,93,0.00,,,0.00,weatherlink.com 1.10,2013-03-09 11:13:00,
2013-03-09 06:28:00,21.9,20.0,29.64,South,185,0.0,0.0,93,0.00,,,0.00,weatherlink.com 1.10,2013-03-09 11:28:00,
2013-03-09 06:43:00,22.4,21.0,29.64,South,184,0.0,1.0,94,0.00,,,0.00,weatherlink.com 1.10,2013-03-09 11:43:00,
2013-03-09 06:58:00,22.7,21.0,29.64,South,185,0.0,1.0,94,0.00,,,0.00,weatherlink.com 1.10,2013-03-09 11:58:00,
2013-03-09 07:13:00,23.3,22.0,29.63,South,185,0.0,1.0,94,0.00,,,0.00,weatherlink.com 1.10,2013-03-09 12:13:00,
2013-03-09 07:28:00,24.0,23.0,29.63,South,184,0.0,1.0,94,0.00,,,0.00,weatherlink.com 1.10,2013-03-09 12:28:00,
2013-03-09 07:43:00,25.0,24.0,29.63,South,185,0.0,1.0,94,0.00,,,0.00,weatherlink.com 1.10,2013-03-09 12:43:00,
2013-03-09 07:58:00,27.0,25.0,29.63,South,183,0.0,1.0,93,0.00,,,0.00,weatherlink.com 1.10,2013-03-09 12:58:00,
2013-03-09 08:13:00,28.3,26.0,29.63,South,169,1.0,1.0,91,0.00,,,0.00,weatherlink.com 1.10,2013-03-09 13:13:00,
2013-03-09 08:28:00,29.7,27.0,29.63,SSE,166,0.0,1.0,88,0.00,,,0.00,weatherlink.com 1.10,2013-03-09 13:28:00,
2013-03-09 08:43:00,31.1,27.0,29.63,South,176,1.0,5.0,85,0.00,,,0.00,weatherlink.com 1.10,2013-03-09 13:43:00,
2013-03-09 08:58:00,32.5,27.0,29.63,SSE,162,2.0,5.0,81,0.00,,,0.00,weatherlink.com 1.10,2013-03-09 13:58:00,
2013-03-09 09:13:00,33.1,27.0,29.63,South,189,4.0,5.0,79,0.00,,,0.00,weatherlink.com 1.10,2013-03-09 14:13:00,
2013-03-09 09:28:00,33.7,28.0,29.63,SSW,201,3.0,4.0,78,0.00,,,0.00,weatherlink.com 1.10,2013-03-09 14:28:00,
2013-03-09 09:43:00,34.5,28.0,29.63,SSW,201,3.0,4.0,76,0.00,,,0.00,weatherlink.com 1.10,2013-03-09 14:43:00,
2013-03-09 09:58:00,34.7,27.0,29.62,SSE,159,3.0,9.0,73,0.00,,,0.00,weatherlink.com 1.10,2013-03-09 14:58:00,
2013-03-09 10:13:00,35.4,27.0,29.62,SSE,163,5.0,8.0,71,0.00,,,0.00,weatherlink.com 1.10,2013-03-09 15:13:00,
2013-03-09 10:28:00,36.3,27.0,29.61,SSW,196,5.0,7.0,68,0.00,,,0.00,weatherlink.com 1.10,2013-03-09 15:28:00,
2013-03-09 10:44:00,37.3,27.0,29.61,South,191,4.0,9.0,66,0.00,,,0.00,weatherlink.com 1.10,2013-03-09 15:44:00,
2013-03-09 10:59:00,38.5,27.0,29.60,SSW,200,6.0,8.0,63,0.00,,,0.00,weatherlink.com 1.10,2013-03-09 15:59:00,
2013-03-09 11:14:00,39.6,27.0,29.60,SE,141,3.0,8.0,62,0.00,,,0.00,weatherlink.com 1.10,2013-03-09 16:14:00,
2013-03-09 11:29:00,40.1,27.0,29.59,SSE,166,2.0,7.0,61,0.00,,,0.00,weatherlink.com 1.10,2013-03-09 16:29:00,
2013-03-09 11:44:00,40.8,28.0,29.58,SE,135,3.0,7.0,61,0.00,,,0.00,weatherlink.com 1.10,2013-03-09 16:44:00,
2013-03-09 11:59:00,40.3,28.0,29.58,SE,128,5.0,6.0,61,0.00,,,0.00,weatherlink.com 1.10,2013-03-09 16:59:00,
2013-03-09 12:14:00,40.1,28.0,29.58,SSE,148,2.0,8.0,62,0.00,,,0.00,weatherlink.com 1.10,2013-03-09 17:14:00,
2013-03-09 12:29:00,41.0,28.0,29.58,SSW,207,7.0,11.0,60,0.00,,,0.00,weatherlink.com 1.10,2013-03-09 17:29:00,
2013-03-09 12:44:00,41.7,28.0,29.57,SSW,194,4.0,12.0,59,0.00,,,0.00,weatherlink.com 1.10,2013-03-09 17:44:00,
2013-03-09 12:59:00,42.2,29.0,29.56,SSE,156,6.0,12.0,59,0.00,,,0.00,weatherlink.com 1.10,2013-03-09 17:59:00,
2013-03-09 13:14:00,42.8,29.0,29.54,SSE,152,5.0,11.0,58,0.00,,,0.00,weatherlink.com 1.10,2013-03-09 18:14:00,
2013-03-09 13:29:00,42.4,28.0,29.53,South,170,2.0,9.0,58,0.00,,,0.00,weatherlink.com 1.10,2013-03-09 18:29:00,
2013-03-09 13:44:00,42.2,28.0,29.52,South,190,6.0,9.0,58,0.00,,,0.00,weatherlink.com 1.10,2013-03-09 18:44:00,
2013-03-09 13:59:00,43.2,29.0,29.51,South,181,5.0,10.0,57,0.00,,,0.00,weatherlink.com 1.10,2013-03-09 18:59:00,
2013-03-09 14:14:00,43.6,28.0,29.50,SSW,212,6.0,14.0,55,0.00,,,0.00,weatherlink.com 1.10,2013-03-09 19:14:00,
2013-03-09 14:29:00,43.8,28.0,29.48,South,183,5.0,10.0,55,0.00,,,0.00,weatherlink.com 1.10,2013-03-09 19:29:00,
2013-03-09 14:44:00,43.9,28.0,29.47,South,173,7.0,11.0,54,0.00,,,0.00,weatherlink.com 1.10,2013-03-09 19:44:00,
2013-03-09 14:59:00,44.2,29.0,29.47,SE,146,1.0,7.0,56,0.00,,,0.00,weatherlink.com 1.10,2013-03-09 19:59:00,
2013-03-09 15:14:00,43.7,29.0,29.47,SSE,162,2.0,9.0,56,0.00,,,0.00,weatherlink.com 1.10,2013-03-09 20:14:00,
2013-03-09 15:29:00,43.1,29.0,29.47,SSE,160,4.0,8.0,57,0.00,,,0.00,weatherlink.com 1.10,2013-03-09 20:29:00,
2013-03-09 15:44:00,42.3,29.0,29.45,SSE,165,3.0,11.0,60,0.00,,,0.00,weatherlink.com 1.10,2013-03-09 20:44:00,
2013-03-09 15:59:00,41.7,29.0,29.44,ESE,111,4.0,6.0,61,0.00,,,0.00,weatherlink.com 1.10,2013-03-09 20:59:00,
2013-03-09 16:14:00,41.6,29.0,29.43,East,94,0.0,7.0,61,0.00,,,0.00,weatherlink.com 1.10,2013-03-09 21:14:00,
2013-03-09 16:29:00,42.2,30.0,29.44,East,101,4.0,4.0,62,0.00,,,0.00,weatherlink.com 1.10,2013-03-09 21:29:00,
2013-03-09 16:44:00,42.6,30.0,29.43,SSE,151,0.0,4.0,61,0.00,,,0.00,weatherlink.com 1.10,2013-03-09 21:44:00,
2013-03-09 16:59:00,43.4,30.0,29.43,SSE,148,3.0,4.0,60,0.00,,,0.00,weatherlink.com 1.10,2013-03-09 21:59:00,
2013-03-09 17:14:00,42.3,30.0,29.42,ESE,114,0.0,2.0,62,0.00,,,0.00,weatherlink.com 1.10,2013-03-09 22:14:00,
2013-03-09 17:29:00,41.9,30.0,29.42,SE,134,0.0,3.0,64,0.00,,,0.00,weatherlink.com 1.10,2013-03-09 22:29:00,
2013-03-09 17:45:00,41.8,31.0,29.41,SE,129,1.0,3.0,65,0.00,,,0.00,weatherlink.com 1.10,2013-03-09 22:45:00,
2013-03-09 18:00:00,41.1,31.0,29.40,SE,132,1.0,2.0,68,0.00,,,0.00,weatherlink.com 1.10,2013-03-09 23:00:00,
2013-03-09 18:15:00,40.7,32.0,29.40,ESE,115,1.0,2.0,70,0.00,,,0.00,weatherlink.com 1.10,2013-03-09 23:15:00,
2013-03-09 18:30:00,40.2,32.0,29.39,East,98,0.0,3.0,72,0.00,,,0.00,weatherlink.com 1.10,2013-03-09 23:30:00,
2013-03-09 18:45:00,39.6,32.0,29.39,ESE,113,2.0,3.0,74,0.00,,,0.00,weatherlink.com 1.10,2013-03-09 23:45:00,
2013-03-09 19:00:00,38.9,32.0,29.39,ESE,114,1.0,3.0,75,0.00,,,0.00,weatherlink.com 1.10,2013-03-10 00:00:00,
2013-03-09 19:15:00,38.5,32.0,29.39,ESE,110,2.0,4.0,77,0.00,,,0.00,weatherlink.com 1.10,2013-03-10 00:15:00,
2013-03-09 19:30:00,38.0,32.0,29.38,SE,131,2.0,3.0,78,0.00,,,0.00,weatherlink.com 1.10,2013-03-10 00:30:00,
2013-03-09 19:45:00,37.5,32.0,29.38,ESE,106,1.0,4.0,79,0.00,,,0.00,weatherlink.com 1.10,2013-03-10 00:45:00,
2013-03-09 20:00:00,36.9,32.0,29.37,ESE,110,1.0,4.0,81,0.00,,,0.00,weatherlink.com 1.10,2013-03-10 01:00:00,
2013-03-09 20:15:00,36.9,32.0,29.37,SE,136,1.0,5.0,81,0.00,,,0.00,weatherlink.com 1.10,2013-03-10 01:15:00,
2013-03-09 20:30:00,37.0,31.0,29.37,SE,135,1.0,3.0,80,0.00,,,0.00,weatherlink.com 1.10,2013-03-10 01:30:00,
2013-03-09 20:45:00,37.2,31.0,29.37,SSE,148,1.0,5.0,79,0.00,,,0.00,weatherlink.com 1.10,2013-03-10 01:45:00,
2013-03-09 21:00:00,37.2,31.0,29.36,SE,137,1.0,3.0,79,0.00,,,0.00,weatherlink.com 1.10,2013-03-10 02:00:00,
2013-03-09 21:15:00,37.0,31.0,29.35,SE,131,2.0,3.0,79,0.00,,,0.00,weatherlink.com 1.10,2013-03-10 02:15:00,
2013-03-09 21:30:00,37.0,31.0,29.36,SSE,153,1.0,2.0,79,0.00,,,0.00,weatherlink.com 1.10,2013-03-10 02:30:00,
2013-03-09 21:45:00,36.9,31.0,29.34,SE,127,1.0,3.0,79,0.00,,,0.00,weatherlink.com 1.10,2013-03-10 02:45:00,
2013-03-09 22:00:00,36.9,31.0,29.34,SE,134,1.0,2.0,79,0.00,,,0.00,weatherlink.com 1.10,2013-03-10 03:00:00,
2013-03-09 22:15:00,37.1,31.0,29.34,SSE,163,2.0,3.0,79,0.00,,,0.00,weatherlink.com 1.10,2013-03-10 03:15:00,
2013-03-09 22:30:00,37.6,31.0,29.33,SE,136,1.0,4.0,78,0.00,,,0.00,weatherlink.com 1.10,2013-03-10 03:30:00,
2013-03-09 22:45:00,37.8,32.0,29.33,SSE,160,1.0,3.0,78,0.00,,,0.00,weatherlink.com 1.10,2013-03-10 03:45:00,
2013-03-09 23:00:00,37.8,32.0,29.34,South,189,3.0,5.0,80,0.00,,,0.00,weatherlink.com 1.10,2013-03-10 04:00:00,
2013-03-09 23:15:00,37.6,33.0,29.34,SSW,195,2.0,3.0,83,0.01,,,0.01,weatherlink.com 1.10,2013-03-10 04:15:00,
2013-03-09 23:30:00,37.3,33.0,29.33,SE,141,0.0,2.0,85,0.01,,,0.01,weatherlink.com 1.10,2013-03-10 04:30:00,
2013-03-09 23:45:00,37.0,33.0,29.32,SE,136,1.0,2.0,86,0.01,,,0.01,weatherlink.com 1.10,2013-03-10 04:45:00,